Time;durP1;ratioP1;P1;durP2;ratioP2;P2;SDS_P1;SDS_P2;PMS_P1;PMS_P2;Temp;Humidity;BMP_temperature;BMP_pressure;BME280_temperature;BME280_humidity;BME280_pressure;Samples;Min_cycle;Max_cycle;Signal;HPM_P1;HPM_P2
2022/05/27 00:02:10;;;;;;;12.43;10.20;;;10.90;99.90;;;;;;4957167;28;20049;-78
2022/05/27 00:04:38;;;;;;;11.90;10.45;;;10.90;99.90;;;;;;4991297;28;20062;-78
2022/05/27 00:07:06;;;;;;;9.90;8.90;;;10.90;99.90;;;;;;4992055;28;20054;-81
2022/05/27 00:09:34;;;;;;;13.88;11.65;;;10.90;99.90;;;;;;4973445;28;20439;-79
2022/05/27 00:12:03;;;;;;;13.23;11.05;;;11.00;99.90;;;;;;4972959;28;20517;-80
2022/05/27 00:14:31;;;;;;;16.60;11.50;;;11.00;99.90;;;;;;4954839;28;20097;-80
2022/05/27 00:16:58;;;;;;;15.73;12.07;;;11.00;99.90;;;;;;4970975;28;20062;-80
2022/05/27 00:19:26;;;;;;;13.30;11.77;;;11.00;99.90;;;;;;4971627;28;20498;-77
2022/05/27 00:21:53;;;;;;;17.08;13.10;;;11.00;99.90;;;;;;4991469;28;20065;-78
2022/05/27 00:24:21;;;;;;;15.10;12.25;;;11.00;99.90;;;;;;4974118;28;20132;-77
2022/05/27 00:26:49;;;;;;;16.20;12.90;;;11.00;99.90;;;;;;4990917;28;20058;-77
2022/05/27 00:29:17;;;;;;;17.70;14.02;;;11.00;99.90;;;;;;4990079;28;20046;-77
2022/05/27 00:31:45;;;;;;;18.90;14.07;;;11.00;99.90;;;;;;4991324;28;20053;-78
2022/05/27 00:34:14;;;;;;;16.75;13.75;;;11.00;99.90;;;;;;4991423;28;20507;-80
2022/05/27 00:36:42;;;;;;;15.40;13.35;;;11.00;99.90;;;;;;4954438;28;20047;-79
2022/05/27 00:39:09;;;;;;;15.77;13.15;;;11.00;99.90;;;;;;4983772;28;20054;-80
2022/05/27 00:41:36;;;;;;;16.50;13.55;;;11.00;99.90;;;;;;4973588;28;20097;-79
2022/05/27 00:44:04;;;;;;;18.23;14.35;;;11.10;99.90;;;;;;4991568;28;20105;-80
2022/05/27 00:46:36;;;;;;;16.83;14.32;;;11.10;99.90;;;;;;4973354;28;20047;-79
2022/05/27 00:49:10;;;;;;;18.05;15.32;;;11.10;99.90;;;;;;4991051;28;20053;-80
2022/05/27 00:51:49;;;;;;;19.60;15.40;;;11.10;99.90;;;;;;4990044;28;20050;-79
2022/05/27 00:54:20;;;;;;;19.15;14.88;;;11.10;99.90;;;;;;4990757;28;20128;-80
2022/05/27 00:56:54;;;;;;;20.70;16.73;;;11.10;99.90;;;;;;4990398;28;20472;-79
2022/05/27 00:59:28;;;;;;;21.95;17.05;;;11.10;99.90;;;;;;4990779;28;20057;-80
2022/05/27 01:01:58;;;;;;;18.38;15.68;;;11.10;99.90;;;;;;4990055;28;20436;-82
2022/05/27 01:04:30;;;;;;;19.13;15.73;;;11.00;99.90;;;;;;4989638;28;20043;-83
2022/05/27 01:06:58;;;;;;;22.40;17.40;;;11.00;99.90;;;;;;4989929;28;20054;-81
2022/05/27 01:09:26;;;;;;;19.80;16.33;;;11.00;99.90;;;;;;4953476;28;20137;-81
2022/05/27 01:12:23;;;;;;;25.15;17.70;;;11.00;99.90;;;;;;4955470;28;20053;-80
2022/05/27 01:15:09;;;;;;;24.45;17.55;;;11.00;99.90;;;;;;4978607;28;20053;-81
2022/05/27 01:17:52;;;;;;;23.92;19.08;;;11.00;99.90;;;;;;4991050;28;20140;-81
2022/05/27 01:20:30;;;;;;;21.83;18.35;;;11.00;99.90;;;;;;4991016;28;20081;-80
2022/05/27 01:23:46;;;;;;;23.33;17.88;;;11.00;99.90;;;;;;4988809;28;20089;-82
2022/05/27 01:27:07;;;;;;;21.02;16.55;;;11.00;99.90;;;;;;4988847;28;20478;-82
2022/05/27 01:30:17;;;;;;;22.17;18.27;;;11.00;99.90;;;;;;4957033;28;20069;-80
2022/05/27 01:32:53;;;;;;;28.13;19.00;;;11.10;99.90;;;;;;4984263;28;20486;-80
2022/05/27 01:35:28;;;;;;;24.65;19.45;;;11.00;99.90;;;;;;4990773;28;20074;-81
2022/05/27 01:38:06;;;;;;;27.30;19.95;;;11.10;99.90;;;;;;4973296;28;20495;-80
2022/05/27 01:40:47;;;;;;;25.92;19.85;;;11.10;99.90;;;;;;4990879;28;20064;-80
2022/05/27 01:43:22;;;;;;;23.60;18.92;;;11.10;99.90;;;;;;4990522;28;20141;-81
2022/05/27 01:45:58;;;;;;;22.52;18.23;;;11.10;99.90;;;;;;4991129;28;20074;-79
2022/05/27 01:48:31;;;;;;;23.30;18.60;;;11.20;99.90;;;;;;4990421;28;20145;-78
2022/05/27 01:51:06;;;;;;;23.48;17.98;;;11.20;99.90;;;;;;4989005;28;20081;-77
2022/05/27 01:53:39;;;;;;;24.30;18.70;;;11.20;99.90;;;;;;4990283;28;20047;-78
2022/05/27 01:56:15;;;;;;;21.73;18.13;;;11.30;99.90;;;;;;4973005;28;20058;-78
2022/05/27 01:58:48;;;;;;;21.48;16.85;;;11.20;99.90;;;;;;4972615;28;20525;-78
2022/05/27 02:01:22;;;;;;;18.65;15.95;;;11.20;99.90;;;;;;4953849;28;20051;-78
2022/05/27 02:03:54;;;;;;;19.50;16.85;;;11.20;99.90;;;;;;4970684;28;20058;-78
2022/05/27 02:06:27;;;;;;;21.83;16.52;;;11.20;99.90;;;;;;4969865;28;20055;-78
2022/05/27 02:09:03;;;;;;;20.10;15.73;;;11.20;99.90;;;;;;4983511;28;20514;-78
2022/05/27 02:11:32;;;;;;;18.55;15.20;;;11.20;99.90;;;;;;4992685;28;20144;-78
2022/05/27 02:14:04;;;;;;;17.13;14.60;;;11.20;99.90;;;;;;4992594;28;20472;-78
2022/05/27 02:16:41;;;;;;;21.73;15.75;;;11.10;99.90;;;;;;4960025;28;20636;-78
2022/05/27 02:19:13;;;;;;;24.10;17.52;;;11.10;99.90;;;;;;4992353;28;20046;-78
2022/05/27 02:21:45;;;;;;;21.90;17.77;;;11.00;99.90;;;;;;4992845;28;20137;-78
2022/05/27 02:24:19;;;;;;;28.98;18.13;;;11.10;99.90;;;;;;4991714;28;20137;-79
2022/05/27 02:26:53;;;;;;;21.30;15.57;;;11.10;99.90;;;;;;4987516;28;20050;-79
2022/05/27 02:29:29;;;;;;;20.30;16.33;;;11.20;99.90;;;;;;4992454;28;20137;-78
2022/05/27 02:32:07;;;;;;;26.42;15.82;;;11.30;99.90;;;;;;4993554;28;20056;-76
2022/05/27 02:37:29;;;;;;;;;;;11.30;99.90;;;;;;4991544;28;20054;-77
2022/05/27 02:40:01;;;;;;;23.58;14.10;;;11.40;99.90;;;;;;4957437;28;19926;-77
2022/05/27 02:42:36;;;;;;;22.20;14.27;;;11.50;99.90;;;;;;4974785;28;20113;-81
2022/05/27 02:45:17;;;;;;;25.30;13.80;;;11.50;99.90;;;;;;4981445;28;20109;-81
2022/05/27 02:47:55;;;;;;;21.33;13.25;;;11.50;99.90;;;;;;4975919;28;20042;-82
2022/05/27 02:50:33;;;;;;;16.70;13.43;;;11.50;99.90;;;;;;4993435;28;20540;-81
2022/05/27 02:53:12;;;;;;;19.08;13.00;;;11.50;99.90;;;;;;4959586;28;20046;-80
2022/05/27 02:55:53;;;;;;;21.02;12.50;;;11.50;99.90;;;;;;4993439;28;20571;-80
2022/05/27 02:58:20;;;;;;;19.60;11.75;;;11.50;99.90;;;;;;4991503;28;20061;-80
2022/05/27 03:00:48;;;;;;;14.82;10.88;;;11.50;99.90;;;;;;4993342;28;20046;-80
2022/05/27 03:03:17;;;;;;;12.00;10.15;;;11.50;99.90;;;;;;4974691;28;20529;-80
2022/05/27 03:06:03;;;;;;;19.77;11.18;;;11.50;99.90;;;;;;4992342;28;20058;-80
2022/05/27 03:08:37;;;;;;;13.55;10.43;;;11.40;99.90;;;;;;4973002;28;20048;-80
2022/05/27 03:11:14;;;;;;;21.52;11.35;;;11.40;99.90;;;;;;4993059;28;20061;-79
2022/05/27 03:14:08;;;;;;;11.95;9.13;;;11.50;99.90;;;;;;4991293;28;20054;-80
2022/05/27 03:16:48;;;;;;;15.50;9.85;;;11.50;99.90;;;;;;4959412;28;20403;-81
2022/05/27 03:19:39;;;;;;;15.63;10.75;;;11.40;99.90;;;;;;4990593;28;20054;-79
2022/05/27 03:22:16;;;;;;;8.88;7.97;;;11.40;99.90;;;;;;4990403;28;20074;-79
2022/05/27 03:25:09;;;;;;;10.13;8.43;;;11.40;99.90;;;;;;4974502;28;20173;-79
2022/05/27 03:27:42;;;;;;;9.90;7.07;;;11.50;99.90;;;;;;4992646;28;20602;-79
2022/05/27 03:30:14;;;;;;;;;;;11.50;99.90;;;;;;4991806;28;20065;-81
2022/05/27 03:32:50;;;;;;;6.05;5.55;;;11.60;99.90;;;;;;4992595;28;19929;-81
2022/05/27 03:35:31;;;;;;;6.22;5.63;;;11.60;99.90;;;;;;4974781;28;20064;-81
2022/05/27 03:38:07;;;;;;;5.78;5.38;;;11.60;99.90;;;;;;4992624;28;20428;-80
2022/05/27 03:40:41;;;;;;;4.80;4.40;;;11.60;99.90;;;;;;4991773;28;20061;-80
2022/05/27 03:43:10;;;;;;;5.20;4.70;;;11.60;99.90;;;;;;4992861;28;20050;-81
2022/05/27 03:45:51;;;;;;;5.07;4.55;;;11.50;99.90;;;;;;4992345;28;20050;-80
2022/05/27 03:48:21;;;;;;;7.05;5.05;;;11.50;99.90;;;;;;4973617;28;20050;-82
2022/05/27 03:50:53;;;;;;;5.18;4.78;;;11.60;99.90;;;;;;4992984;28;20065;-83
2022/05/27 03:53:21;;;;;;;6.97;5.80;;;11.60;99.90;;;;;;4992691;28;20581;-83
2022/05/27 03:55:50;;;;;;;6.50;5.88;;;11.70;99.90;;;;;;4959071;28;20056;-82
2022/05/27 03:58:18;;;;;;;6.68;6.05;;;11.70;99.90;;;;;;4955500;28;20073;-81
2022/05/27 04:00:46;;;;;;;7.43;6.75;;;11.80;99.90;;;;;;4973376;28;20043;-83
2022/05/27 04:03:14;;;;;;;5.55;5.15;;;11.80;99.90;;;;;;4939766;28;20047;-79
2022/05/27 04:05:41;;;;;;;5.85;5.22;;;11.90;99.90;;;;;;4973519;28;20428;-81
2022/05/27 04:08:10;;;;;;;6.40;5.63;;;12.10;99.90;;;;;;4974434;28;20053;-82
2022/05/27 04:10:37;;;;;;;6.15;5.65;;;12.20;99.90;;;;;;4990513;28;20042;-82
2022/05/27 04:13:05;;;;;;;6.93;5.50;;;12.20;99.90;;;;;;4993112;28;20050;-83
2022/05/27 04:15:33;;;;;;;8.80;5.82;;;12.20;99.90;;;;;;4958612;28;20050;-84
2022/05/27 04:18:00;;;;;;;5.70;5.20;;;12.20;99.90;;;;;;4991333;28;20129;-83
2022/05/27 04:20:28;;;;;;;6.65;5.50;;;12.10;99.90;;;;;;4992297;28;20053;-84
2022/05/27 04:22:56;;;;;;;5.57;5.07;;;12.00;99.90;;;;;;4992552;28;20157;-84
2022/05/27 04:25:25;;;;;;;7.65;6.20;;;11.90;99.90;;;;;;4992127;28;20410;-84
2022/05/27 04:27:53;;;;;;;5.72;4.10;;;11.80;99.90;;;;;;4976323;28;20073;-85
2022/05/27 04:30:23;;;;;;;2.78;2.58;;;11.80;99.90;;;;;;4992662;28;20054;-81
2022/05/27 04:32:51;;;;;;;2.85;2.65;;;11.70;99.90;;;;;;4992846;28;20054;-85
2022/05/27 04:35:19;;;;;;;2.80;2.58;;;11.70;99.90;;;;;;4982651;28;20042;-83
2022/05/27 04:37:47;;;;;;;3.90;2.78;;;11.60;99.90;;;;;;4992555;28;20096;-83
2022/05/27 04:40:14;;;;;;;4.30;3.25;;;11.70;99.90;;;;;;4973779;28;20054;-80
2022/05/27 04:42:44;;;;;;;3.83;3.53;;;11.70;99.90;;;;;;4990172;28;20049;-83
2022/05/27 04:45:12;;;;;;;3.67;3.38;;;11.80;99.90;;;;;;4958659;28;20153;-85
2022/05/27 04:47:40;;;;;;;3.95;3.65;;;11.80;99.90;;;;;;4992510;28;20065;-85
2022/05/27 04:50:11;;;;;;;4.03;3.65;;;11.80;99.90;;;;;;4975627;28;20046;-84
2022/05/27 04:52:40;;;;;;;8.15;3.90;;;11.80;99.90;;;;;;4990583;28;20054;-83
2022/05/27 04:55:12;;;;;;;2.78;2.58;;;11.70;99.90;;;;;;4992621;28;20042;-82
2022/05/27 04:57:44;;;;;;;2.80;2.60;;;11.70;99.90;;;;;;4991403;28;20054;-83
2022/05/27 05:00:16;;;;;;;3.37;3.07;;;11.70;99.90;;;;;;4990636;28;20109;-81
2022/05/27 05:02:44;;;;;;;2.97;2.70;;;11.60;99.90;;;;;;4956978;28;20054;-82
2022/05/27 05:05:15;;;;;;;2.90;2.47;;;11.60;99.90;;;;;;4982835;28;20060;-82
2022/05/27 05:07:44;;;;;;;3.58;2.75;;;11.70;99.90;;;;;;4973132;28;20136;-83
2022/05/27 05:10:21;;;;;;;4.05;2.78;;;11.70;99.90;;;;;;4988418;28;20153;-81
2022/05/27 05:12:51;;;;;;;3.58;2.63;;;11.60;99.90;;;;;;4991146;28;20530;-82
2022/05/27 05:15:20;;;;;;;2.78;2.58;;;11.60;99.90;;;;;;4972715;28;20072;-82
2022/05/27 05:17:51;;;;;;;2.53;2.33;;;11.50;99.90;;;;;;4971737;28;20054;-77
2022/05/27 05:20:23;;;;;;;2.88;2.63;;;11.40;99.90;;;;;;4988638;28;20050;-78
2022/05/27 05:22:51;;;;;;;2.63;2.43;;;11.40;99.90;;;;;;4990324;28;20058;-78
2022/05/27 05:25:19;;;;;;;3.90;2.83;;;11.30;99.90;;;;;;4988658;28;20499;-79
2022/05/27 05:27:47;;;;;;;2.60;2.40;;;11.30;99.90;;;;;;4989148;28;20050;-77
2022/05/27 05:30:22;;;;;;;3.20;2.80;;;11.30;99.90;;;;;;4989841;28;20491;-79
2022/05/27 05:32:49;;;;;;;5.07;3.17;;;11.40;99.90;;;;;;4973000;28;20050;-78
2022/05/27 05:35:18;;;;;;;4.70;3.42;;;11.40;99.90;;;;;;4990388;28;20510;-78
2022/05/27 05:37:54;;;;;;;4.10;3.70;;;11.60;99.90;;;;;;4990121;28;20570;-83
2022/05/27 05:40:32;;;;;;;5.57;4.07;;;11.70;99.90;;;;;;4973165;28;20142;-84
2022/05/27 05:43:01;;;;;;;3.40;3.10;;;11.80;99.90;;;;;;4990308;28;20051;-83
2022/05/27 05:46:00;;;;;;;4.45;3.70;;;11.90;99.90;;;;;;4993867;28;20080;-78
2022/05/27 05:48:28;;;;;;;4.75;3.20;;;11.80;99.90;;;;;;4994375;28;20132;-78
2022/05/27 05:50:55;;;;;;;5.38;3.38;;;11.80;99.90;;;;;;4993390;28;20458;-83
2022/05/27 05:53:23;;;;;;;3.85;3.17;;;11.70;99.90;;;;;;4994532;28;20065;-82
2022/05/27 05:55:51;;;;;;;5.43;3.78;;;11.60;99.90;;;;;;4994001;28;20050;-82
2022/05/27 05:58:19;;;;;;;7.50;4.70;;;11.60;99.90;;;;;;4993930;28;20137;-82
2022/05/27 06:00:51;;;;;;;4.07;3.65;;;11.50;99.90;;;;;;4992934;28;20096;-78
2022/05/27 06:03:19;;;;;;;6.80;4.72;;;11.60;99.90;;;;;;4994148;28;20046;-79
2022/05/27 06:05:47;;;;;;;7.75;4.32;;;11.50;99.90;;;;;;4993625;28;20046;-77
2022/05/27 06:08:15;;;;;;;9.68;4.63;;;11.50;99.90;;;;;;4993450;28;20049;-78
2022/05/27 06:10:43;;;;;;;13.15;5.20;;;11.50;99.90;;;;;;4993039;28;20046;-78
2022/05/27 06:13:11;;;;;;;9.57;5.30;;;11.50;99.90;;;;;;4968128;28;20054;-78
2022/05/27 06:15:38;;;;;;;11.25;5.40;;;11.50;99.90;;;;;;4972870;28;20053;-76
2022/05/27 06:18:08;;;;;;;5.70;4.70;;;11.50;99.90;;;;;;4978216;28;20096;-77
2022/05/27 06:20:37;;;;;;;7.97;5.07;;;11.50;99.90;;;;;;4991754;28;20057;-76
2022/05/27 06:23:06;;;;;;;6.45;4.60;;;11.50;99.90;;;;;;4987130;28;20510;-78
2022/05/27 06:25:34;;;;;;;9.45;5.82;;;11.60;99.90;;;;;;4992632;28;20105;-80
2022/05/27 06:36:17;;;;;;;9.57;5.82;;;11.70;99.90;;;;;;4993789;28;20451;-77
2022/05/27 06:38:45;;;;;;;9.70;6.00;;;11.70;99.90;;;;;;4994044;28;20054;-78
2022/05/27 06:41:12;;;;;;;6.35;5.70;;;11.70;99.90;;;;;;4993296;28;20060;-82
2022/05/27 06:43:45;;;;;;;8.68;6.88;;;11.70;99.90;;;;;;4996010;28;20046;-82
2022/05/27 06:46:14;;;;;;;10.50;6.90;;;11.70;99.90;;;;;;4994369;28;20046;-77
2022/05/27 06:48:44;;;;;;;13.55;7.88;;;11.70;99.90;;;;;;4993823;28;20108;-78
2022/05/27 06:51:12;;;;;;;16.67;6.85;;;11.70;99.90;;;;;;5000202;28;20054;-82
2022/05/27 06:53:41;;;;;;;10.75;7.05;;;11.70;99.90;;;;;;4976526;28;20081;-84
2022/05/27 06:56:11;;;;;;;9.20;6.78;;;11.80;99.90;;;;;;4983286;28;20084;-78
2022/05/27 06:58:40;;;;;;;7.18;6.07;;;11.80;99.90;;;;;;4994655;28;20065;-78
2022/05/27 07:01:08;;;;;;;7.38;5.65;;;11.80;99.90;;;;;;4992437;28;20046;-77
2022/05/27 07:03:38;;;;;;;6.03;5.20;;;11.80;99.90;;;;;;5002206;28;20392;-82
2022/05/27 07:06:10;;;;;;;4.68;4.30;;;11.80;99.90;;;;;;4985129;28;20047;-85
2022/05/27 07:08:38;;;;;;;8.50;4.40;;;11.80;99.90;;;;;;4986790;28;20085;-79
2022/05/27 07:11:07;;;;;;;9.85;4.95;;;11.80;99.90;;;;;;4989337;28;20050;-78
2022/05/27 07:13:34;;;;;;;5.10;4.10;;;11.80;99.90;;;;;;4971761;28;20080;-77
2022/05/27 07:16:02;;;;;;;4.65;4.20;;;11.90;99.90;;;;;;4974994;28;20145;-77
2022/05/27 07:18:29;;;;;;;5.38;4.88;;;12.00;99.90;;;;;;4982601;28;20046;-76
2022/05/27 07:21:02;;;;;;;4.95;3.95;;;12.00;99.90;;;;;;4995613;28;20049;-77
2022/05/27 07:23:31;;;;;;;7.20;4.15;;;12.00;99.90;;;;;;4980624;28;20053;-78
2022/05/27 07:25:58;;;;;;;6.47;4.03;;;12.10;99.90;;;;;;4999778;28;20050;-77
2022/05/27 07:28:27;;;;;;;8.80;4.75;;;12.10;99.90;;;;;;4995611;28;20054;-79
2022/05/27 07:30:56;;;;;;;4.75;4.35;;;12.10;99.90;;;;;;4996257;28;20484;-78
2022/05/27 07:33:24;;;;;;;5.43;4.90;;;12.20;99.90;;;;;;5002023;28;20768;-78
2022/05/27 07:35:52;;;;;;;5.72;4.82;;;12.10;99.90;;;;;;4981607;28;20446;-79
2022/05/27 07:38:20;;;;;;;6.07;4.93;;;12.10;99.90;;;;;;4981696;28;20057;-77
2022/05/27 07:40:49;;;;;;;6.40;4.57;;;12.10;99.90;;;;;;4969537;28;20117;-78
2022/05/27 07:43:17;;;;;;;4.43;3.63;;;12.20;99.90;;;;;;5001500;28;20054;-77
2022/05/27 07:45:45;;;;;;;5.90;4.40;;;12.20;99.90;;;;;;4997333;28;20099;-76
2022/05/27 07:48:13;;;;;;;5.00;4.18;;;12.10;99.90;;;;;;4976350;28;20124;-77
2022/05/27 07:50:44;;;;;;;4.07;3.78;;;12.00;99.90;;;;;;4971243;28;20065;-77
2022/05/27 07:53:12;;;;;;;4.55;4.15;;;12.00;99.90;;;;;;4999528;28;20464;-76
2022/05/27 07:55:39;;;;;;;3.20;2.97;;;12.10;99.90;;;;;;4990072;28;20057;-76
2022/05/27 07:58:08;;;;;;;4.15;3.83;;;12.20;99.90;;;;;;4974809;28;20615;-76
2022/05/27 08:00:39;;;;;;;4.85;4.45;;;12.10;99.90;;;;;;4990240;28;20054;-75
2022/05/27 08:03:08;;;;;;;5.95;4.55;;;12.20;99.90;;;;;;4993239;28;20046;-77
2022/05/27 08:05:36;;;;;;;9.88;5.13;;;12.40;99.90;;;;;;5003100;28;20108;-78
2022/05/27 08:08:05;;;;;;;10.45;4.97;;;12.40;99.90;;;;;;4992616;28;20045;-78
2022/05/27 08:10:37;;;;;;;5.85;4.70;;;12.40;99.90;;;;;;4993736;28;20515;-79
2022/05/27 08:13:06;;;;;;;9.95;5.03;;;12.40;99.90;;;;;;4999343;28;20544;-76
2022/05/27 08:15:36;;;;;;;6.20;4.72;;;12.50;99.90;;;;;;4981098;28;20077;-77
2022/05/27 08:18:04;;;;;;;6.15;4.72;;;12.50;99.90;;;;;;4999103;28;20053;-76
2022/05/27 08:20:35;;;;;;;5.55;4.78;;;12.50;99.90;;;;;;5000951;28;20057;-79
2022/05/27 08:23:05;;;;;;;9.63;5.10;;;12.40;99.90;;;;;;4989200;28;20101;-79
2022/05/27 08:25:35;;;;;;;10.15;5.00;;;12.50;99.90;;;;;;4996248;28;20107;-79
2022/05/27 08:28:02;;;;;;;6.85;4.75;;;12.70;99.90;;;;;;4997928;28;20045;-78
2022/05/27 08:30:33;;;;;;;8.13;4.55;;;13.00;99.90;;;;;;4990448;28;20137;-78
2022/05/27 08:33:03;;;;;;;8.45;3.97;;;13.30;99.90;;;;;;4982278;28;20057;-79
2022/05/27 08:38:22;;;;;;;5.40;3.70;;;13.70;99.90;;;;;;4989813;28;20133;-77
2022/05/27 08:41:15;;;;;;;5.50;4.07;;;13.70;99.90;;;;;;4991186;28;20137;-79
2022/05/27 08:44:02;;;;;;;3.75;3.45;;;13.60;99.90;;;;;;4992271;28;20087;-78
2022/05/27 08:46:36;;;;;;;8.23;3.95;;;13.40;99.90;;;;;;4999344;28;20142;-77
2022/05/27 08:49:09;;;;;;;6.65;4.45;;;13.30;99.90;;;;;;4994571;28;20056;-78
2022/05/27 08:51:42;;;;;;;4.93;4.10;;;13.40;99.90;;;;;;4987457;28;20061;-80
2022/05/27 08:54:15;;;;;;;6.53;3.85;;;13.60;99.90;;;;;;4988125;28;20764;-78
2022/05/27 08:59:37;;;;;;;6.38;3.83;;;14.00;99.90;;;;;;4955590;28;20128;-77
2022/05/27 09:02:14;;;;;;;6.55;4.55;;;14.40;99.90;;;;;;4978894;28;20078;-78
2022/05/27 09:04:52;;;;;;;6.53;3.75;;;14.60;99.90;;;;;;4984988;28;20058;-80
2022/05/27 09:07:35;;;;;;;7.20;4.13;;;14.60;99.90;;;;;;4989206;28;20046;-76
2022/05/27 09:10:08;;;;;;;6.32;3.70;;;14.60;99.90;;;;;;4990856;28;20145;-80
2022/05/27 09:12:46;;;;;;;9.70;4.22;;;14.40;99.90;;;;;;4988954;28;20054;-78
2022/05/27 09:15:32;;;;;;;6.20;4.35;;;14.20;99.90;;;;;;4970848;28;20068;-77
2022/05/27 09:18:15;;;;;;;6.13;4.10;;;14.10;99.90;;;;;;4955074;28;20046;-77
2022/05/27 09:21:00;;;;;;;6.72;3.58;;;14.00;99.90;;;;;;4989838;28;20063;-76
2022/05/27 09:23:50;;;;;;;7.90;3.80;;;13.90;99.90;;;;;;4989511;28;20050;-77
2022/05/27 09:26:23;;;;;;;11.38;3.10;;;13.80;99.90;;;;;;4988623;28;20450;-76
2022/05/27 09:28:57;;;;;;;;;;;13.90;99.90;;;;;;4990112;28;20047;-77
2022/05/27 09:31:36;;;;;;;7.20;3.00;;;14.20;99.90;;;;;;4989217;28;19926;-77
2022/05/27 09:34:04;;;;;;;4.20;3.25;;;14.90;99.90;;;;;;4989971;28;20125;-77
2022/05/27 09:36:38;;;;;;;6.20;3.75;;;15.40;99.90;;;;;;4970093;28;20137;-76
2022/05/27 09:39:11;;;;;;;6.00;3.20;;;16.10;99.90;;;;;;4988467;28;20061;-76
2022/05/27 09:41:48;;;;;;;6.03;3.92;;;16.60;99.90;;;;;;4986317;28;20042;-77
2022/05/27 09:44:24;;;;;;;6.93;4.10;;;16.90;99.90;;;;;;4988953;28;20086;-78
2022/05/27 09:46:53;;;;;;;7.88;3.55;;;17.00;99.90;;;;;;4987761;28;20046;-78
2022/05/27 09:49:21;;;;;;;10.00;3.92;;;16.70;99.90;;;;;;4969345;28;20502;-78
2022/05/27 09:51:51;;;;;;;6.07;4.00;;;16.50;99.90;;;;;;4988699;28;20050;-78
2022/05/27 09:54:35;;;;;;;8.77;3.92;;;16.40;99.90;;;;;;4989086;28;20050;-79
2022/05/27 09:57:16;;;;;;;16.02;4.70;;;16.20;99.90;;;;;;4989436;28;20081;-79
2022/05/27 09:59:45;;;;;;;5.18;4.03;;;16.00;99.90;;;;;;4972130;28;20062;-78
2022/05/27 10:02:20;;;;;;;7.13;4.07;;;15.60;99.90;;;;;;4988080;28;20534;-77
2022/05/27 10:04:58;;;;;;;10.55;4.25;;;15.20;99.90;;;;;;4989453;28;20483;-78
2022/05/27 10:07:37;;;;;;;10.00;4.05;;;14.80;99.90;;;;;;4990175;28;20054;-79
2022/05/27 10:10:24;;;;;;;7.78;4.05;;;14.60;99.90;;;;;;4988348;28;20475;-78
2022/05/27 10:12:53;;;;;;;5.20;3.95;;;14.50;99.90;;;;;;4988161;28;20145;-78
2022/05/27 10:15:33;;;;;;;4.50;3.55;;;14.30;99.90;;;;;;4970728;28;20568;-79
2022/05/27 10:18:19;;;;;;;5.05;3.10;;;14.10;99.90;;;;;;4986940;28;20230;-78
2022/05/27 10:20:52;;;;;;;3.53;2.53;;;13.90;99.90;;;;;;4987854;28;20070;-78
2022/05/27 10:23:28;;;;;;;;;;;13.80;99.90;;;;;;4970099;28;20046;-77
2022/05/27 10:25:58;;;;;;;6.55;3.83;;;13.70;99.90;;;;;;4987312;28;19988;-77
2022/05/27 10:28:30;;;;;;;5.72;3.20;;;13.70;99.90;;;;;;4991055;28;20042;-79
2022/05/27 10:31:02;;;;;;;6.18;2.55;;;13.90;99.90;;;;;;4992000;28;20100;-78
2022/05/27 10:33:43;;;;;;;3.03;2.72;;;14.30;99.90;;;;;;4992274;28;20497;-78
2022/05/27 10:36:45;;;;;;;4.85;2.95;;;15.50;99.90;;;;;;4960021;28;20069;-81
2022/05/27 10:39:25;;;;;;;4.25;3.50;;;17.80;99.90;;;;;;4992090;28;20042;-75
2022/05/27 10:42:20;;;;;;;6.35;3.50;;;20.00;99.90;;;;;;4991550;28;20060;-77
2022/05/27 10:45:06;;;;;;;4.57;3.28;;;21.90;99.90;;;;;;4974871;28;20038;-77
2022/05/27 10:48:09;;;;;;;4.32;3.22;;;22.60;87.30;;;;;;4974708;28;20064;-78
2022/05/27 10:50:47;;;;;;;9.52;3.53;;;21.70;81.90;;;;;;4973766;28;20042;-77
2022/05/27 10:53:42;;;;;;;5.07;3.40;;;20.90;82.00;;;;;;4990893;28;20054;-78
2022/05/27 10:56:26;;;;;;;5.53;3.70;;;21.80;90.00;;;;;;4991949;28;20089;-78
2022/05/27 11:02:21;;;;;;;5.53;3.50;;;21.40;79.50;;;;;;4990870;28;20050;-78
2022/05/27 11:05:26;;;;;;;4.97;3.45;;;21.20;78.10;;;;;;4991325;28;20672;-76
2022/05/27 11:08:13;;;;;;;5.70;3.45;;;21.50;81.20;;;;;;4990025;28;20062;-77
2022/05/27 11:10:51;;;;;;;5.82;4.28;;;22.80;81.70;;;;;;4991611;28;20081;-76
2022/05/27 11:17:00;;;;;;;4.13;3.53;;;25.70;62.10;;;;;;4973057;28;20132;-79
2022/05/27 11:19:57;;;;;;;3.90;3.60;;;25.60;59.20;;;;;;4990295;28;20046;-78
2022/05/27 11:22:35;;;;;;;4.30;3.38;;;25.20;62.70;;;;;;4940271;28;20573;-77
2022/05/27 11:25:34;;;;;;;3.17;2.90;;;24.10;63.20;;;;;;4990000;28;20518;-78
2022/05/27 11:28:56;;;;;;;4.05;3.65;;;24.20;64.90;;;;;;4993051;28;20038;-77
2022/05/27 11:31:46;;;;;;;3.55;3.25;;;24.80;61.70;;;;;;4951178;28;20059;-84
2022/05/27 11:34:37;;;;;;;6.07;3.58;;;24.50;62.20;;;;;;4998842;28;20057;-80
2022/05/27 11:37:50;;;;;;;4.97;3.70;;;23.00;63.30;;;;;;4996084;28;20054;-78
2022/05/27 11:40:48;;;;;;;;;;;;;;;;;;;;;
2022/05/27 11:43:45;;;;;;;4.95;3.60;;;22.10;68.70;;;;;;4983079;28;20058;-78
2022/05/27 11:49:53;;;;;;;3.47;3.17;;;25.10;61.40;;;;;;4978138;28;20054;-81
2022/05/27 11:52:38;;;;;;;10.15;3.70;;;24.90;59.60;;;;;;4993709;28;20050;-87
2022/05/27 11:55:51;;;;;;;4.38;3.67;;;24.40;61.60;;;;;;4980158;28;20057;-91
2022/05/27 11:58:23;;;;;;;3.92;2.90;;;23.80;62.20;;;;;;4983359;28;20077;-84
2022/05/27 12:01:00;;;;;;;8.10;3.58;;;23.30;63.90;;;;;;4993850;28;20105;-87
2022/05/27 12:03:39;;;;;;;2.33;2.22;;;25.00;60.00;;;;;;4974449;28;20050;-78
2022/05/27 12:06:11;;;;;;;3.58;2.88;;;26.70;56.80;;;;;;4974544;28;20525;-79
2022/05/27 12:08:44;;;;;;;3.40;3.10;;;27.40;53.80;;;;;;5001929;28;20077;-79
2022/05/27 12:11:19;;;;;;;2.17;1.98;;;26.40;54.60;;;;;;4979496;28;20069;-80
2022/05/27 12:13:51;;;;;;;3.30;2.33;;;25.20;55.70;;;;;;4999139;28;20105;-78
2022/05/27 12:16:21;;;;;;;5.57;2.53;;;25.20;57.20;;;;;;4976527;28;20050;-76
2022/05/27 12:18:56;;;;;;;5.35;2.53;;;26.50;55.30;;;;;;4997287;28;20049;-78
2022/05/27 12:21:28;;;;;;;3.80;2.70;;;26.80;53.90;;;;;;4988288;28;20196;-78
2022/05/27 12:24:00;;;;;;;3.17;2.50;;;25.90;54.60;;;;;;4986954;28;20577;-78
2022/05/27 12:26:32;;;;;;;3.55;2.20;;;26.40;55.00;;;;;;4989022;28;20058;-77
2022/05/27 12:29:05;;;;;;;4.25;2.30;;;27.50;52.60;;;;;;4989177;28;20510;-76
2022/05/27 12:31:32;;;;;;;;;;;28.50;51.20;;;;;;4969834;28;20057;-77
2022/05/27 12:34:40;;;;;;;4.78;2.85;;;27.60;51.20;;;;;;4986743;28;19932;-77
2022/05/27 12:37:26;;;;;;;10.57;3.70;;;25.70;54.60;;;;;;4987266;28;20093;-79
2022/05/27 12:40:27;;;;;;;4.45;2.90;;;24.70;57.70;;;;;;4970764;28;20050;-75
2022/05/27 12:42:57;;;;;;;8.38;2.60;;;24.60;57.30;;;;;;4940412;28;20066;-77
2022/05/27 12:45:47;;;;;;;4.65;3.22;;;25.30;58.70;;;;;;4989968;28;20054;-78
2022/05/27 12:48:29;;;;;;;3.58;2.97;;;27.00;55.20;;;;;;4989410;28;20050;-75
2022/05/27 12:51:01;;;;;;;3.20;2.30;;;26.90;54.10;;;;;;4990303;28;20490;-77
2022/05/27 12:53:43;;;;;;;4.45;2.80;;;26.30;53.60;;;;;;4991230;28;20137;-77
2022/05/27 13:02:50;;;;;;;6.63;3.15;;;24.60;59.30;;;;;;4890601;29;20509;-77
2022/05/27 13:05:22;;;;;;;4.00;3.20;;;24.40;58.20;;;;;;4966060;28;20050;-79
2022/05/27 13:07:53;;;;;;;5.63;3.55;;;23.40;60.40;;;;;;4988344;28;20145;-78
2022/05/27 13:10:49;;;;;;;5.63;3.33;;;23.20;61.80;;;;;;4986206;28;20097;-77
2022/05/27 13:13:22;;;;;;;3.92;3.47;;;22.30;64.30;;;;;;4989682;28;20065;-76
2022/05/27 13:15:54;;;;;;;7.30;4.07;;;21.60;66.00;;;;;;4987814;28;20058;-78
2022/05/27 13:18:42;;;;;;;4.43;4.03;;;21.70;66.70;;;;;;4988657;28;20577;-76
2022/05/27 13:21:13;;;;;;;5.85;3.58;;;23.80;63.30;;;;;;4987657;28;20544;-77
2022/05/27 13:23:57;;;;;;;4.15;3.03;;;26.10;57.60;;;;;;4970070;28;20096;-76
2022/05/27 13:26:45;;;;;;;4.80;3.35;;;27.70;53.30;;;;;;4987326;28;20055;-79
2022/05/27 13:29:28;;;;;;;3.83;3.47;;;29.10;50.80;;;;;;4971230;28;20050;-83
2022/05/27 13:31:59;;;;;;;;;;;29.70;49.70;;;;;;4990575;28;20110;-82
2022/05/27 13:34:47;;;;;;;4.63;2.85;;;30.10;48.70;;;;;;4990459;28;19926;-83
2022/05/27 13:37:22;;;;;;;3.15;2.80;;;30.40;47.50;;;;;;4983706;28;20052;-83
2022/05/27 13:39:56;;;;;;;3.92;3.53;;;30.50;46.80;;;;;;4991047;28;20515;-80
2022/05/27 13:42:30;;;;;;;4.00;3.50;;;30.30;46.40;;;;;;4972015;28;20104;-77
2022/05/27 13:45:11;;;;;;;3.40;3.17;;;29.60;47.70;;;;;;4986988;28;20117;-79
2022/05/27 13:47:46;;;;;;;3.10;2.85;;;29.50;48.40;;;;;;4985049;28;20060;-79
2022/05/27 13:50:38;;;;;;;5.10;2.97;;;29.70;48.40;;;;;;4989433;28;20058;-79
2022/05/27 13:53:26;;;;;;;8.70;7.07;;;29.60;48.10;;;;;;4986833;28;20536;-82
2022/05/27 13:56:07;;;;;;;3.22;2.92;;;29.60;48.20;;;;;;4969219;28;20545;-79
2022/05/27 13:58:36;;;;;;;4.97;3.55;;;29.40;47.70;;;;;;4988319;28;20149;-78